Time;durP1;ratioP1;P1;durP2;ratioP2;P2;SDS_P1;SDS_P2;PMS_P1;PMS_P2;Temp;Humidity;BMP_temperature;BMP_pressure;BME280_temperature;BME280_humidity;BME280_pressure;Samples;Min_cycle;Max_cycle;Signal;HPM_P1;HPM_P2
2022/06/21 00:02:01;;;;;;;5.82;2.40;;;13.30;99.90;;;;;;5085997;28;20260;-72
2022/06/21 00:04:28;;;;;;;7.30;2.50;;;13.30;99.90;;;;;;5087449;28;20217;-69
2022/06/21 00:06:57;;;;;;;12.80;3.50;;;13.20;99.90;;;;;;5086350;28;20225;-72
2022/06/21 00:09:24;;;;;;;13.70;3.28;;;13.30;99.90;;;;;;5085848;28;20206;-70
2022/06/21 00:11:51;;;;;;;6.05;3.05;;;13.20;99.90;;;;;;5087604;28;20259;-74
2022/06/21 00:14:19;;;;;;;10.57;4.85;;;13.20;99.90;;;;;;5087272;28;20267;-71
2022/06/21 00:16:46;;;;;;;10.98;4.15;;;13.20;99.90;;;;;;5088672;28;20246;-71
2022/06/21 00:19:19;;;;;;;15.77;4.20;;;13.20;99.90;;;;;;5087093;28;20283;-72
2022/06/21 00:21:47;;;;;;;6.30;3.45;;;13.20;99.90;;;;;;5084521;28;20365;-70
2022/06/21 00:24:16;;;;;;;8.43;3.53;;;13.10;99.90;;;;;;5086355;28;20270;-74
2022/06/21 00:26:45;;;;;;;8.80;3.05;;;13.10;99.90;;;;;;5083610;28;20205;-71
2022/06/21 00:29:13;;;;;;;13.80;4.20;;;13.10;99.90;;;;;;5085867;28;20299;-73
2022/06/21 00:31:45;;;;;;;13.20;4.30;;;13.10;99.90;;;;;;5085622;28;20370;-70
2022/06/21 00:34:15;;;;;;;9.43;4.28;;;13.00;99.90;;;;;;5085807;28;20226;-71
2022/06/21 00:36:42;;;;;;;10.95;4.20;;;13.00;99.90;;;;;;5086074;28;20219;-73
2022/06/21 00:39:13;;;;;;;8.93;3.35;;;12.90;99.90;;;;;;5086005;28;20321;-71
2022/06/21 00:41:47;;;;;;;9.43;3.42;;;13.00;99.90;;;;;;5085370;28;20237;-71
2022/06/21 00:44:20;;;;;;;9.55;3.25;;;13.00;99.90;;;;;;5084068;28;20261;-71
2022/06/21 00:46:53;;;;;;;6.55;3.67;;;13.00;99.90;;;;;;5086172;28;20212;-72
2022/06/21 00:49:24;;;;;;;8.50;3.17;;;12.90;99.90;;;;;;5087300;28;20213;-69
2022/06/21 00:51:57;;;;;;;7.68;3.00;;;12.90;99.90;;;;;;5088827;28;20200;-72
2022/06/21 00:54:30;;;;;;;19.65;4.57;;;12.90;99.90;;;;;;5089601;28;20208;-73
2022/06/21 00:57:03;;;;;;;9.18;3.78;;;12.90;99.90;;;;;;5088460;28;20246;-73
2022/06/21 00:59:33;;;;;;;9.70;3.35;;;12.80;99.90;;;;;;5084344;28;20212;-73
2022/06/21 01:02:04;;;;;;;8.20;3.63;;;12.80;99.90;;;;;;5084686;28;20185;-72
2022/06/21 01:04:35;;;;;;;7.47;3.85;;;12.70;99.90;;;;;;5081868;28;20434;-73
2022/06/21 01:07:07;;;;;;;7.80;3.95;;;12.70;99.90;;;;;;5081664;28;20217;-70
2022/06/21 01:09:38;;;;;;;7.97;2.70;;;12.70;99.90;;;;;;5080335;28;20466;-71
2022/06/21 01:12:13;;;;;;;13.50;4.78;;;12.70;99.90;;;;;;5084668;28;20214;-70
2022/06/21 01:14:46;;;;;;;9.88;3.30;;;12.60;99.90;;;;;;5085005;28;20189;-70
2022/06/21 01:17:13;;;;;;;9.73;3.40;;;12.60;99.90;;;;;;5083794;28;20215;-72
2022/06/21 01:19:45;;;;;;;8.00;3.50;;;12.60;99.90;;;;;;5081911;28;20217;-72
2022/06/21 01:22:26;;;;;;;14.45;5.32;;;12.50;99.90;;;;;;5075699;28;20191;-73
2022/06/21 01:25:05;;;;;;;9.30;4.25;;;12.50;99.90;;;;;;5081669;28;20436;-71
2022/06/21 01:27:34;;;;;;;9.05;3.65;;;12.50;99.90;;;;;;5073065;28;20272;-73
2022/06/21 01:30:01;;;;;;;9.43;3.10;;;12.50;99.90;;;;;;5086421;28;20226;-70
2022/06/21 01:32:28;;;;;;;5.15;3.00;;;12.50;99.90;;;;;;5087958;28;20196;-71
2022/06/21 01:34:55;;;;;;;12.00;4.53;;;12.50;99.90;;;;;;5085958;28;20212;-72
2022/06/21 01:37:27;;;;;;;10.15;4.38;;;12.50;99.90;;;;;;5084203;28;20233;-73
2022/06/21 01:40:01;;;;;;;7.43;3.40;;;12.50;99.90;;;;;;5084482;28;20216;-69
2022/06/21 01:42:32;;;;;;;9.05;3.85;;;12.50;99.90;;;;;;5071703;28;20414;-73
2022/06/21 01:45:06;;;;;;;6.05;2.90;;;12.50;99.90;;;;;;5082610;28;20189;-71
2022/06/21 01:47:42;;;;;;;7.38;3.33;;;12.50;99.90;;;;;;5079665;28;20196;-72
2022/06/21 01:50:10;;;;;;;11.48;3.85;;;12.40;99.90;;;;;;5080274;28;20224;-71
2022/06/21 01:52:43;;;;;;;9.85;3.75;;;12.40;99.90;;;;;;5074828;28;20194;-71
2022/06/21 01:55:21;;;;;;;12.07;4.10;;;12.40;99.90;;;;;;5080633;28;20255;-74
2022/06/21 01:57:50;;;;;;;12.50;4.45;;;12.40;99.90;;;;;;5074509;28;20277;-73
2022/06/21 02:00:18;;;;;;;12.10;5.38;;;12.40;99.90;;;;;;5084498;28;20459;-71
2022/06/21 02:02:50;;;;;;;17.63;5.80;;;12.40;99.90;;;;;;5082770;28;20297;-71
2022/06/21 02:05:19;;;;;;;16.15;5.97;;;12.40;99.90;;;;;;5089647;28;20255;-73
2022/06/21 02:07:50;;;;;;;23.90;10.40;;;12.40;99.90;;;;;;5085338;28;20194;-71
2022/06/21 02:10:24;;;;;;;20.27;8.43;;;12.40;99.90;;;;;;5082747;28;20457;-74
2022/06/21 02:12:54;;;;;;;19.90;7.18;;;12.40;99.90;;;;;;5089345;28;20293;-73
2022/06/21 02:15:35;;;;;;;14.90;5.60;;;12.50;99.90;;;;;;5088775;28;20205;-72
2022/06/21 02:18:04;;;;;;;16.85;5.07;;;12.50;99.90;;;;;;5087130;28;20283;-73
2022/06/21 02:20:38;;;;;;;18.17;6.70;;;12.50;99.90;;;;;;5088003;28;20209;-74
2022/06/21 02:23:06;;;;;;;12.18;4.45;;;12.40;99.90;;;;;;5088230;28;20246;-71
2022/06/21 02:25:34;;;;;;;7.80;3.90;;;12.30;99.90;;;;;;5093019;28;20193;-70
2022/06/21 02:28:04;;;;;;;5.72;3.65;;;12.30;99.90;;;;;;5091558;28;20412;-71
2022/06/21 02:30:33;;;;;;;7.40;3.20;;;12.30;99.90;;;;;;5087791;28;20208;-71
2022/06/21 02:33:02;;;;;;;6.20;3.67;;;12.20;99.90;;;;;;5088327;28;20200;-70
2022/06/21 02:35:38;;;;;;;12.95;4.88;;;12.20;99.90;;;;;;5080604;28;20191;-69
2022/06/21 02:38:10;;;;;;;11.48;3.80;;;12.20;99.90;;;;;;5088008;28;20238;-72
2022/06/21 02:40:44;;;;;;;9.38;4.18;;;12.30;99.90;;;;;;5082045;28;20255;-71
2022/06/21 02:43:15;;;;;;;13.18;5.38;;;12.30;99.90;;;;;;5094011;28;20193;-71
2022/06/21 02:45:50;;;;;;;14.00;5.78;;;12.30;99.90;;;;;;5085809;28;20187;-69
2022/06/21 02:48:20;;;;;;;7.93;4.20;;;12.20;99.90;;;;;;5089477;28;20205;-72
2022/06/21 02:50:51;;;;;;;17.30;6.20;;;12.40;99.90;;;;;;5087454;28;20458;-70
2022/06/21 02:53:22;;;;;;;11.30;5.13;;;12.60;99.90;;;;;;5084059;28;20222;-72
2022/06/21 02:55:54;;;;;;;10.35;6.07;;;12.50;99.90;;;;;;5088134;28;20190;-71
2022/06/21 02:58:26;;;;;;;11.82;6.72;;;12.40;99.90;;;;;;5085137;28;20230;-72
2022/06/21 03:00:55;;;;;;;15.00;6.85;;;12.40;99.90;;;;;;5087120;28;20342;-73
2022/06/21 03:03:25;;;;;;;20.63;7.82;;;12.50;99.90;;;;;;5086535;28;20202;-73
2022/06/21 03:05:58;;;;;;;14.15;7.38;;;12.40;99.90;;;;;;5089231;28;20185;-70
2022/06/21 03:08:27;;;;;;;17.13;6.72;;;12.30;99.90;;;;;;5087144;28;20198;-69
2022/06/21 03:10:54;;;;;;;11.32;5.88;;;12.30;99.90;;;;;;5091848;28;20211;-71
2022/06/21 03:13:24;;;;;;;17.23;7.68;;;12.30;99.90;;;;;;5090727;28;20184;-71
2022/06/21 03:15:58;;;;;;;15.00;7.68;;;12.30;99.90;;;;;;5087433;28;20231;-72
2022/06/21 03:18:38;;;;;;;15.00;6.55;;;12.30;99.90;;;;;;5082650;28;20453;-71
2022/06/21 03:21:05;;;;;;;10.40;5.50;;;12.30;99.90;;;;;;5085939;28;20212;-74
2022/06/21 03:23:34;;;;;;;13.82;5.80;;;12.40;99.90;;;;;;5087534;28;20408;-71
2022/06/21 03:26:03;;;;;;;10.82;6.25;;;12.40;99.90;;;;;;5098940;28;20204;-72
2022/06/21 03:28:34;;;;;;;19.20;7.65;;;12.40;99.90;;;;;;5083283;28;20187;-69
2022/06/21 03:31:09;;;;;;;11.27;5.43;;;12.40;99.90;;;;;;5082608;28;20256;-69
2022/06/21 03:33:39;;;;;;;15.38;7.72;;;12.40;99.90;;;;;;5085585;28;20182;-70
2022/06/21 03:36:08;;;;;;;13.32;5.90;;;12.50;99.90;;;;;;5086861;28;20201;-72
2022/06/21 03:38:40;;;;;;;18.38;6.43;;;12.50;99.90;;;;;;5085726;28;20219;-72
2022/06/21 03:43:58;;;;;;;11.05;5.18;;;12.60;99.90;;;;;;5082047;28;20245;-73
2022/06/21 03:46:32;;;;;;;10.60;4.95;;;12.60;99.90;;;;;;5072576;28;20190;-72
2022/06/21 03:49:03;;;;;;;21.65;5.65;;;12.60;99.90;;;;;;5082646;28;20248;-72
2022/06/21 03:51:37;;;;;;;8.23;5.10;;;12.80;99.90;;;;;;5081869;28;20284;-73
2022/06/21 03:54:09;;;;;;;18.52;7.40;;;12.80;99.90;;;;;;5085100;28;20249;-70
2022/06/21 03:56:41;;;;;;;9.57;4.00;;;13.00;99.90;;;;;;5088181;28;20241;-69
2022/06/21 03:59:15;;;;;;;7.68;4.28;;;13.20;99.90;;;;;;5085876;28;20268;-71
2022/06/21 04:01:50;;;;;;;10.75;4.40;;;13.20;99.90;;;;;;5078359;28;20265;-71
2022/06/21 04:04:22;;;;;;;8.50;3.78;;;13.40;99.90;;;;;;5080260;28;20471;-73
2022/06/21 04:06:55;;;;;;;12.13;4.68;;;13.80;99.90;;;;;;5081197;28;20281;-70
2022/06/21 04:09:37;;;;;;;13.88;2.90;;;14.50;99.90;;;;;;5082547;28;20211;-72
2022/06/21 04:12:11;;;;;;;5.97;3.50;;;15.40;99.90;;;;;;5075982;28;20199;-70
2022/06/21 04:14:43;;;;;;;15.77;4.00;;;16.40;99.90;;;;;;5080307;28;20187;-72
2022/06/21 04:17:18;;;;;;;9.55;3.13;;;17.00;99.90;;;;;;5073452;28;20442;-71
2022/06/21 04:19:49;;;;;;;8.87;2.60;;;17.80;99.90;;;;;;5079182;28;20218;-70
2022/06/21 04:22:25;;;;;;;9.90;2.90;;;18.30;99.90;;;;;;5086470;28;20504;-71
2022/06/21 04:24:56;;;;;;;8.70;2.50;;;18.60;99.90;;;;;;5085327;28;20449;-71
2022/06/21 04:27:29;;;;;;;10.23;2.83;;;19.30;99.90;;;;;;5079366;28;20429;-71
2022/06/21 04:30:02;;;;;;;6.90;2.60;;;19.50;99.90;;;;;;5083203;28;20481;-70
2022/06/21 04:32:35;;;;;;;7.53;3.37;;;19.30;99.90;;;;;;5081047;28;20433;-70
2022/06/21 04:35:06;;;;;;;10.60;2.57;;;19.20;99.90;;;;;;5089152;28;20441;-71
2022/06/21 04:37:48;;;;;;;6.73;2.30;;;19.20;99.90;;;;;;5077025;28;20497;-70
2022/06/21 04:40:21;;;;;;;5.17;2.60;;;19.90;99.90;;;;;;5086405;28;20501;-71
2022/06/21 04:43:01;;;;;;;7.43;2.60;;;20.50;98.60;;;;;;5078808;28;20696;-71
2022/06/21 04:45:36;;;;;;;7.37;2.40;;;21.50;96.50;;;;;;5081965;28;20429;-72
2022/06/21 04:48:22;;;;;;;10.30;2.77;;;22.30;94.50;;;;;;5078154;28;20476;-71
2022/06/21 04:50:55;;;;;;;7.20;2.37;;;22.90;92.90;;;;;;5081090;28;20482;-70
2022/06/21 04:53:28;;;;;;;7.27;4.17;;;23.50;91.00;;;;;;5081356;28;20576;-70
2022/06/21 04:56:02;;;;;;;13.70;3.43;;;23.80;90.10;;;;;;5077950;28;20429;-69
2022/06/21 04:58:30;;;;;;;5.17;1.73;;;24.00;88.40;;;;;;5076642;28;20464;-71
2022/06/21 05:01:00;;;;;;;8.40;3.53;;;24.10;87.60;;;;;;5084937;28;20476;-70
2022/06/21 05:03:49;;;;;;;9.50;3.80;;;24.70;86.70;;;;;;5078344;28;20453;-70
2022/06/21 05:06:16;;;;;;;5.97;3.13;;;25.10;85.20;;;;;;5080939;28;20688;-70
2022/06/21 05:08:51;;;;;;;12.80;4.60;;;25.60;83.10;;;;;;5085254;28;20433;-70
2022/06/21 05:11:19;;;;;;;8.67;4.13;;;25.90;81.50;;;;;;5085410;28;20474;-73
2022/06/21 05:13:49;;;;;;;8.33;3.50;;;26.00;80.20;;;;;;5084286;28;20445;-71
2022/06/21 05:16:21;;;;;;;7.40;3.50;;;26.00;80.80;;;;;;5084777;28;20649;-70
2022/06/21 05:18:55;;;;;;;15.43;5.00;;;26.20;79.20;;;;;;5084982;28;20504;-71
2022/06/21 05:21:30;;;;;;;10.03;3.80;;;26.80;78.40;;;;;;5084277;28;20449;-70
2022/06/21 05:23:57;;;;;;;14.30;4.27;;;27.10;77.00;;;;;;5085099;28;20554;-69
2022/06/21 05:26:32;;;;;;;7.50;3.60;;;27.30;76.30;;;;;;5081374;28;20535;-69
2022/06/21 05:29:01;;;;;;;7.60;3.77;;;27.40;75.00;;;;;;5073905;28;20426;-71
2022/06/21 05:31:32;;;;;;;12.23;3.37;;;27.10;75.10;;;;;;5079337;28;20426;-71
2022/06/21 05:34:06;;;;;;;10.80;3.67;;;26.70;75.50;;;;;;5067943;28;20682;-69
2022/06/21 05:36:36;;;;;;;12.90;3.80;;;26.50;75.30;;;;;;5099750;27;20699;-70
2022/06/21 05:39:08;;;;;;;11.47;4.13;;;26.50;76.80;;;;;;5080525;28;20485;-69
2022/06/21 05:41:40;;;;;;;5.30;2.80;;;26.50;75.30;;;;;;5080242;28;20433;-70
2022/06/21 05:44:12;;;;;;;15.00;4.10;;;25.80;76.30;;;;;;5082442;28;20437;-70
2022/06/21 05:46:42;;;;;;;11.00;3.10;;;25.00;78.00;;;;;;5089185;28;20437;-68
2022/06/21 05:49:20;;;;;;;11.70;3.13;;;24.60;79.60;;;;;;5084697;28;20485;-69
2022/06/21 05:51:48;;;;;;;6.83;3.10;;;23.80;80.90;;;;;;5082889;28;20510;-70
2022/06/21 05:54:17;;;;;;;4.60;3.00;;;22.80;84.40;;;;;;5082001;28;20491;-71
2022/06/21 05:56:44;;;;;;;9.13;3.20;;;22.10;87.90;;;;;;5083691;28;20425;-71
2022/06/21 05:59:15;;;;;;;9.00;2.47;;;22.00;89.70;;;;;;5082832;28;20548;-70
2022/06/21 06:01:47;;;;;;;4.97;1.80;;;21.80;90.30;;;;;;5087604;28;20495;-70
2022/06/21 06:04:27;;;;;;;9.13;2.90;;;21.90;90.50;;;;;;5083239;28;20428;-70
2022/06/21 06:06:57;;;;;;;9.43;4.23;;;22.40;90.60;;;;;;5083124;28;20433;-71
2022/06/21 06:09:27;;;;;;;6.67;3.03;;;23.10;89.10;;;;;;5088045;28;20456;-70
2022/06/21 06:12:00;;;;;;;10.70;2.07;;;22.60;89.10;;;;;;5084719;28;20429;-70
2022/06/21 06:14:33;;;;;;;8.00;2.67;;;22.10;90.30;;;;;;5085964;28;20425;-69
2022/06/21 06:17:04;;;;;;;7.17;2.80;;;21.90;90.90;;;;;;5088306;28;20539;-73
2022/06/21 06:19:38;;;;;;;12.97;4.33;;;21.40;91.40;;;;;;5086609;28;20697;-70
2022/06/21 06:22:18;;;;;;;9.13;4.33;;;21.40;92.30;;;;;;5088459;28;20691;-69
2022/06/21 06:24:55;;;;;;;6.63;2.60;;;21.60;92.20;;;;;;5095883;28;20433;-69
2022/06/21 06:27:45;;;;;;;3.90;2.60;;;21.50;91.80;;;;;;5090780;28;20533;-71
2022/06/21 06:30:16;;;;;;;9.83;2.90;;;21.40;91.90;;;;;;5087348;28;20533;-69
2022/06/21 06:32:48;;;;;;;10.60;2.87;;;21.60;92.30;;;;;;5090878;28;20605;-72
2022/06/21 06:35:20;;;;;;;10.83;3.10;;;22.60;91.10;;;;;;5089157;28;20455;-69
2022/06/21 06:37:48;;;;;;;6.87;2.90;;;22.80;90.50;;;;;;5084185;28;20474;-73
2022/06/21 06:40:21;;;;;;;10.20;2.70;;;23.20;89.30;;;;;;5085800;28;20510;-70
2022/06/21 06:42:54;;;;;;;4.73;2.30;;;23.30;88.10;;;;;;5087811;28;20455;-71
2022/06/21 06:45:25;;;;;;;7.57;2.90;;;23.60;87.20;;;;;;5094331;28;20464;-71
2022/06/21 06:48:02;;;;;;;9.97;3.47;;;23.50;86.60;;;;;;5087656;28;20498;-69
2022/06/21 06:50:35;;;;;;;9.73;2.87;;;23.50;86.10;;;;;;5086343;28;20539;-70
2022/06/21 06:53:17;;;;;;;7.73;2.90;;;23.00;86.90;;;;;;5084405;28;20441;-69
2022/06/21 06:55:47;;;;;;;9.13;2.47;;;22.40;88.50;;;;;;5086113;28;20429;-70
2022/06/21 06:58:22;;;;;;;8.50;3.53;;;21.90;90.00;;;;;;5084030;28;20498;-68
2022/06/21 07:00:54;;;;;;;6.03;1.77;;;22.30;90.20;;;;;;5075438;28;20460;-71
2022/06/21 07:03:24;;;;;;;7.53;2.50;;;22.70;88.80;;;;;;5086959;28;20418;-69
2022/06/21 07:05:58;;;;;;;9.63;2.80;;;22.70;88.10;;;;;;5085867;28;20532;-73
2022/06/21 07:08:33;;;;;;;9.00;3.23;;;22.30;88.80;;;;;;5080479;28;20554;-68
2022/06/21 07:11:03;;;;;;;10.27;2.70;;;22.10;89.50;;;;;;5086625;28;20722;-72
2022/06/21 07:13:32;;;;;;;8.87;2.77;;;22.10;89.70;;;;;;5082012;28;20421;-70
2022/06/21 07:16:06;;;;;;;6.20;3.00;;;23.30;87.80;;;;;;5086878;28;20495;-72
2022/06/21 07:18:41;;;;;;;16.90;2.87;;;24.80;84.10;;;;;;5079796;28;20588;-71
2022/06/21 07:21:10;;;;;;;9.63;3.03;;;25.80;78.70;;;;;;5085388;28;20580;-71
2022/06/21 07:23:38;;;;;;;10.00;3.40;;;27.00;76.40;;;;;;5086893;28;20428;-69
2022/06/21 07:26:09;;;;;;;6.87;3.20;;;28.10;73.90;;;;;;5087059;28;20453;-71
2022/06/21 07:28:41;;;;;;;5.20;3.30;;;27.80;71.80;;;;;;5085256;28;20473;-69
2022/06/21 07:31:14;;;;;;;10.80;4.17;;;27.00;72.30;;;;;;5085913;28;20553;-69
2022/06/21 07:33:47;;;;;;;4.93;2.40;;;26.10;73.90;;;;;;5084011;28;20445;-67
2022/06/21 07:36:20;;;;;;;9.50;3.80;;;25.30;75.90;;;;;;5086125;28;20448;-69
2022/06/21 07:38:52;;;;;;;8.93;3.73;;;24.40;78.90;;;;;;5085551;28;20617;-71
2022/06/21 07:41:26;;;;;;;9.13;3.33;;;24.10;80.30;;;;;;5086306;28;20445;-71
2022/06/21 07:43:58;;;;;;;14.13;3.50;;;23.10;81.60;;;;;;5093429;28;20546;-70
2022/06/21 07:46:30;;;;;;;12.97;5.00;;;22.80;83.90;;;;;;5085524;28;20449;-69
2022/06/21 07:49:06;;;;;;;7.23;3.20;;;22.30;84.10;;;;;;5086466;28;20450;-72
2022/06/21 07:51:41;;;;;;;8.40;3.83;;;22.60;86.20;;;;;;5082334;28;20486;-71
2022/06/21 07:54:14;;;;;;;8.20;3.20;;;24.20;83.70;;;;;;5088469;28;20462;-69
2022/06/21 07:56:45;;;;;;;6.57;3.37;;;25.50;78.90;;;;;;5075601;28;20434;-71
2022/06/21 07:59:18;;;;;;;9.70;3.57;;;27.00;75.40;;;;;;5077159;28;20496;-72
2022/06/21 08:07:30;;;;;;;8.10;3.40;;;29.00;66.70;;;;;;5073665;28;20448;-70
2022/06/21 08:10:02;;;;;;;5.10;2.10;;;28.80;66.40;;;;;;5076503;28;20466;-69
2022/06/21 08:12:29;;;;;;;5.40;2.00;;;27.70;66.20;;;;;;5077015;28;20462;-71
2022/06/21 08:14:58;;;;;;;5.87;2.50;;;26.10;69.30;;;;;;5083883;28;20429;-72
2022/06/21 08:17:31;;;;;;;5.30;2.93;;;25.60;71.60;;;;;;5078821;28;20444;-71
2022/06/21 08:20:05;;;;;;;11.37;3.63;;;25.70;73.60;;;;;;5084918;28;20575;-70
2022/06/21 08:22:46;;;;;;;3.93;2.00;;;26.90;71.40;;;;;;5082438;28;20421;-70
2022/06/21 08:25:23;;;;;;;4.70;1.77;;;27.60;69.00;;;;;;5080233;28;20429;-70
2022/06/21 08:27:55;;;;;;;8.53;1.93;;;28.20;67.70;;;;;;5080177;28;20540;-71
2022/06/21 08:30:29;;;;;;;5.70;2.40;;;28.60;66.50;;;;;;5076265;28;20713;-69
2022/06/21 08:33:04;;;;;;;5.10;2.07;;;28.90;66.00;;;;;;5080654;28;20459;-70
2022/06/21 08:35:39;;;;;;;4.10;1.73;;;29.10;65.80;;;;;;5084602;28;20425;-70
2022/06/21 08:38:13;;;;;;;6.20;2.70;;;28.40;65.60;;;;;;5079005;28;20468;-73
2022/06/21 08:44:48;;;;;;;5.73;2.27;;;27.20;69.30;;;;;;5081829;28;20449;-71
2022/06/21 08:47:45;;;;;;;5.13;1.97;;;28.10;67.80;;;;;;5083854;28;20471;-72
2022/06/21 08:50:39;;;;;;;4.63;2.00;;;28.40;66.20;;;;;;5079857;28;20743;-73
2022/06/21 08:53:29;;;;;;;5.97;2.77;;;28.30;65.70;;;;;;5080151;28;20681;-70
2022/06/21 08:56:03;;;;;;;6.97;2.10;;;28.70;65.50;;;;;;5085391;28;20429;-72
2022/06/21 08:58:45;;;;;;;6.40;2.40;;;29.20;64.00;;;;;;5084762;28;20487;-69
2022/06/21 09:01:22;;;;;;;12.20;2.20;;;29.60;63.10;;;;;;5080946;28;20692;-72
2022/06/21 09:04:14;;;;;;;4.73;1.90;;;29.50;63.10;;;;;;5073606;28;20666;-71
2022/06/21 09:07:02;;;;;;;5.13;1.83;;;29.40;62.20;;;;;;5076103;28;20574;-69
2022/06/21 09:09:47;;;;;;;9.90;1.80;;;29.70;62.00;;;;;;5080666;28;20466;-74
2022/06/21 09:12:22;;;;;;;3.37;1.57;;;28.80;62.30;;;;;;5080309;28;20478;-70
2022/06/21 09:15:33;;;;;;;4.60;2.40;;;28.40;64.40;;;;;;5084934;28;20421;-72
2022/06/21 09:18:14;;;;;;;4.77;1.90;;;28.70;63.00;;;;;;5082614;28;20668;-70
2022/06/21 09:20:49;;;;;;;8.17;2.00;;;28.60;63.40;;;;;;5083329;28;20604;-72
2022/06/21 09:23:28;;;;;;;3.87;1.80;;;28.20;62.50;;;;;;5075921;28;20520;-72
2022/06/21 09:26:09;;;;;;;5.60;1.73;;;28.70;63.10;;;;;;5079883;28;20440;-73
2022/06/21 09:28:41;;;;;;;6.40;2.43;;;29.20;62.30;;;;;;5081268;28;20432;-72
2022/06/21 09:31:17;;;;;;;3.43;1.93;;;29.30;61.60;;;;;;5077856;28;20466;-73
2022/06/21 09:33:50;;;;;;;6.80;2.77;;;29.20;61.10;;;;;;5084584;28;20621;-71
2022/06/21 09:36:27;;;;;;;5.57;2.50;;;29.00;61.30;;;;;;5079807;28;20457;-71
2022/06/21 09:39:07;;;;;;;3.03;1.60;;;29.20;61.70;;;;;;5080647;28;20507;-73
2022/06/21 09:41:44;;;;;;;4.90;2.00;;;29.20;62.70;;;;;;5076163;28;20457;-72
2022/06/21 09:44:16;;;;;;;7.63;2.23;;;29.20;62.10;;;;;;5076423;28;20465;-71
2022/06/21 09:46:49;;;;;;;5.40;2.40;;;29.10;62.20;;;;;;5079014;28;20432;-74
2022/06/21 09:49:29;;;;;;;5.70;2.03;;;29.30;61.80;;;;;;5077863;28;20531;-73
2022/06/21 09:52:03;;;;;;;3.77;1.90;;;29.20;61.80;;;;;;5079742;28;20487;-72
2022/06/21 09:54:35;;;;;;;6.40;2.20;;;28.80;60.80;;;;;;5073830;28;20716;-74
2022/06/21 09:57:19;;;;;;;6.53;2.53;;;28.80;61.20;;;;;;5080636;28;20658;-71
2022/06/21 09:59:54;;;;;;;3.80;1.90;;;28.20;60.80;;;;;;5075269;28;20481;-73
2022/06/21 10:02:31;;;;;;;5.63;2.63;;;28.10;61.60;;;;;;5079780;28;20460;-72
2022/06/21 10:05:12;;;;;;;8.90;1.93;;;28.00;60.10;;;;;;5082581;28;20421;-71
2022/06/21 10:07:56;;;;;;;4.67;1.93;;;27.80;60.50;;;;;;5083601;28;20426;-75
2022/06/21 10:10:36;;;;;;;4.00;1.90;;;27.10;61.90;;;;;;5083418;28;20452;-72
2022/06/21 10:13:16;;;;;;;4.00;1.77;;;27.00;62.80;;;;;;5087556;28;20491;-68
2022/06/21 10:15:53;;;;;;;9.90;1.90;;;27.20;61.50;;;;;;5089892;28;20440;-70
2022/06/21 10:18:55;;;;;;;4.57;1.73;;;27.90;61.60;;;;;;5085651;28;20684;-72
2022/06/21 10:21:56;;;;;;;5.10;2.40;;;28.00;61.50;;;;;;5085003;28;20493;-72
2022/06/21 10:24:38;;;;;;;6.13;2.27;;;28.00;61.10;;;;;;5066572;28;20451;-73
2022/06/21 10:27:21;;;;;;;3.50;1.60;;;27.90;62.10;;;;;;5084840;28;20716;-72
2022/06/21 10:30:13;;;;;;;7.27;2.33;;;27.70;62.50;;;;;;5088154;28;20481;-72
2022/06/21 10:32:55;;;;;;;6.83;1.80;;;27.90;62.70;;;;;;5070271;28;20444;-71
2022/06/21 10:35:34;;;;;;;5.70;2.23;;;27.60;61.40;;;;;;5087023;28;20433;-72
2022/06/21 10:38:25;;;;;;;4.90;1.60;;;27.90;63.00;;;;;;5087239;28;20448;-73
2022/06/21 10:41:05;;;;;;;6.73;2.60;;;27.80;62.30;;;;;;5081546;28;20641;-75
2022/06/21 10:44:16;;;;;;;4.50;2.27;;;27.30;62.80;;;;;;5084245;28;20656;-72
2022/06/21 10:46:49;;;;;;;5.43;2.97;;;26.80;63.20;;;;;;5079381;28;20469;-75
2022/06/21 10:49:41;;;;;;;6.60;2.23;;;26.10;64.40;;;;;;5083268;28;20457;-73
2022/06/21 10:52:36;;;;;;;3.23;1.87;;;25.80;66.70;;;;;;5083498;28;20527;-73
2022/06/21 10:55:35;;;;;;;4.23;2.60;;;25.60;67.80;;;;;;5090760;28;20461;-71
2022/06/21 10:58:29;;;;;;;8.93;2.10;;;25.40;67.20;;;;;;5085228;28;20456;-71
2022/06/21 11:04:25;;;;;;;6.57;2.10;;;25.30;67.90;;;;;;5083733;28;20471;-73
2022/06/21 11:07:02;;;;;;;16.23;8.53;;;25.30;66.60;;;;;;4992905;28;20479;-75
2022/06/21 11:09:44;;;;;;;8.10;2.23;;;25.10;66.60;;;;;;4987467;28;20484;-73
2022/06/21 11:15:12;;;;;;;11.47;2.23;;;25.10;65.50;;;;;;5084624;28;20472;-75
2022/06/21 11:17:49;;;;;;;3.57;1.77;;;25.00;67.40;;;;;;5081787;28;20496;-72
2022/06/21 11:20:22;;;;;;;6.80;2.10;;;25.00;66.70;;;;;;5085951;28;20508;-70
2022/06/21 11:23:01;;;;;;;5.17;1.47;;;24.80;64.80;;;;;;5082340;28;20450;-71
2022/06/21 11:25:40;;;;;;;4.63;2.20;;;24.70;64.90;;;;;;5085368;28;20444;-70
2022/06/21 11:28:18;;;;;;;5.90;1.93;;;24.70;66.80;;;;;;5092317;28;20439;-70
2022/06/21 11:30:50;;;;;;;6.50;2.50;;;24.60;67.90;;;;;;5089846;28;20483;-71
2022/06/21 11:33:29;;;;;;;4.17;2.17;;;24.40;69.50;;;;;;5086522;28;20451;-70
2022/06/21 11:36:03;;;;;;;5.33;1.83;;;24.30;69.80;;;;;;5084786;28;20684;-75
2022/06/21 11:38:50;;;;;;;6.13;2.23;;;24.50;69.90;;;;;;5077724;28;20431;-71
2022/06/21 11:44:14;;;;;;;7.53;2.50;;;24.60;67.90;;;;;;5084502;28;20450;-72
2022/06/21 11:46:45;;;;;;;5.33;3.00;;;24.50;68.50;;;;;;5086415;28;20449;-75
2022/06/21 11:49:33;;;;;;;4.80;2.67;;;24.40;68.60;;;;;;5079732;28;20489;-74
2022/06/21 11:52:41;;;;;;;4.03;2.30;;;24.50;68.50;;;;;;5081284;28;20601;-71
2022/06/21 11:55:21;;;;;;;4.37;2.83;;;24.10;67.60;;;;;;5079578;28;20449;-73
2022/06/21 11:57:54;;;;;;;3.33;2.40;;;23.60;69.00;;;;;;5085257;28;20665;-72
2022/06/21 12:00:28;;;;;;;3.80;2.10;;;23.50;69.70;;;;;;5081505;28;20511;-72
2022/06/21 12:02:57;;;;;;;6.10;2.50;;;23.60;70.60;;;;;;5082528;28;20468;-73
2022/06/21 12:05:37;;;;;;;4.30;2.27;;;23.70;70.30;;;;;;5086561;28;20435;-75
2022/06/21 12:08:12;;;;;;;4.50;2.43;;;23.80;71.70;;;;;;5086933;28;20425;-74
2022/06/21 12:10:50;;;;;;;6.73;2.40;;;24.10;71.00;;;;;;5087341;28;20514;-71
2022/06/21 12:13:34;;;;;;;5.03;2.17;;;24.10;69.90;;;;;;5090826;28;20500;-70
2022/06/21 12:16:16;;;;;;;11.57;3.00;;;23.90;69.40;;;;;;5090070;28;20913;-72
2022/06/21 12:18:47;;;;;;;6.10;2.83;;;23.80;70.70;;;;;;5086182;28;20703;-72
2022/06/21 12:21:17;;;;;;;4.57;1.97;;;23.90;71.30;;;;;;5086323;28;20447;-72
2022/06/21 12:23:48;;;;;;;5.33;2.40;;;24.00;69.50;;;;;;5086310;28;20669;-72
2022/06/21 12:26:20;;;;;;;5.57;2.17;;;23.80;67.40;;;;;;5093959;28;20511;-72
2022/06/21 12:28:50;;;;;;;5.70;1.97;;;23.70;67.30;;;;;;5086342;28;20543;-76
2022/06/21 12:31:25;;;;;;;3.83;2.10;;;23.80;67.50;;;;;;5085524;28;20494;-76
2022/06/21 12:33:56;;;;;;;3.03;1.70;;;23.90;67.90;;;;;;5086110;28;20710;-72
2022/06/21 12:36:40;;;;;;;6.13;3.00;;;24.00;67.30;;;;;;5085883;28;20545;-77
2022/06/21 12:39:15;;;;;;;5.80;1.83;;;24.20;66.80;;;;;;5076270;28;20430;-74
2022/06/21 12:42:08;;;;;;;5.50;2.60;;;24.20;65.70;;;;;;5074566;28;20511;-73
2022/06/21 12:44:50;;;;;;;5.00;2.83;;;24.30;66.10;;;;;;5078947;28;20450;-74
2022/06/21 12:47:32;;;;;;;3.97;1.70;;;24.30;67.50;;;;;;5084436;28;20554;-71
2022/06/21 12:50:37;;;;;;;2.83;1.70;;;24.20;67.30;;;;;;5083932;28;20489;-76
2022/06/21 12:53:35;;;;;;;4.13;2.10;;;24.20;66.90;;;;;;5080061;28;20675;-73
2022/06/21 12:56:12;;;;;;;6.10;1.93;;;24.20;67.30;;;;;;5085335;28;20673;-71
2022/06/21 12:59:17;;;;;;;5.00;1.93;;;24.10;67.90;;;;;;5087631;28;20461;-74
2022/06/21 13:01:52;;;;;;;2.63;1.90;;;24.30;67.20;;;;;;5066060;28;20472;-74
2022/06/21 13:04:40;;;;;;;4.83;2.00;;;24.30;66.60;;;;;;5088497;28;20428;-72
2022/06/21 13:07:34;;;;;;;4.83;2.50;;;24.30;67.80;;;;;;5084964;28;20487;-74
2022/06/21 13:10:27;;;;;;;3.57;2.20;;;24.30;66.60;;;;;;5081439;28;20473;-72
2022/06/21 13:13:23;;;;;;;4.47;2.37;;;24.40;67.00;;;;;;5083403;28;20442;-73
2022/06/21 13:16:03;;;;;;;6.13;2.40;;;24.50;66.80;;;;;;5084958;28;20492;-75
2022/06/21 13:19:18;;;;;;;5.20;2.40;;;24.40;66.30;;;;;;5077408;28;20433;-71
2022/06/21 13:22:08;;;;;;;5.13;2.40;;;24.40;65.50;;;;;;5036580;28;20563;-75
2022/06/21 13:24:50;;;;;;;5.27;2.40;;;24.10;65.20;;;;;;5081322;28;20467;-72
2022/06/21 13:27:30;;;;;;;3.23;2.27;;;24.10;65.30;;;;;;5086734;28;20435;-70
2022/06/21 13:30:17;;;;;;;7.80;2.70;;;24.20;65.90;;;;;;5085525;28;20460;-70
2022/06/21 13:32:50;;;;;;;4.60;2.17;;;24.00;65.80;;;;;;5083915;28;20497;-75
2022/06/21 13:35:22;;;;;;;3.30;1.87;;;24.20;65.40;;;;;;5088387;28;20558;-72
2022/06/21 13:37:55;;;;;;;3.90;2.27;;;24.30;65.20;;;;;;5090288;28;20452;-76
2022/06/21 13:40:26;;;;;;;4.10;2.80;;;24.30;64.30;;;;;;5083295;28;20472;-73
2022/06/21 13:42:58;;;;;;;6.47;2.17;;;24.40;64.80;;;;;;5087892;28;20426;-74
2022/06/21 13:45:48;;;;;;;3.63;2.23;;;24.20;64.90;;;;;;5095049;28;20429;-73
2022/06/21 13:48:26;;;;;;;7.47;2.93;;;24.20;65.70;;;;;;5086322;28;20429;-75